sensor_id;sensor_type;location;lat;lon;timestamp;P1;durP1;ratioP1;P2;durP2;ratioP2
20044;SDS011;10183;47.808;9.476;2023-11-19T00:00:56;14.67;;;13.37;;
20044;SDS011;10183;47.808;9.476;2023-11-19T00:03:41;13.40;;;12.53;;
20044;SDS011;10183;47.808;9.476;2023-11-19T00:06:27;16.67;;;13.73;;
20044;SDS011;10183;47.808;9.476;2023-11-19T00:09:13;14.73;;;13.57;;
20044;SDS011;10183;47.808;9.476;2023-11-19T00:12:02;13.30;;;12.40;;
20044;SDS011;10183;47.808;9.476;2023-11-19T00:14:49;12.50;;;11.70;;
20044;SDS011;10183;47.808;9.476;2023-11-19T00:17:35;14.87;;;13.67;;
20044;SDS011;10183;47.808;9.476;2023-11-19T00:20:21;15.73;;;14.33;;
20044;SDS011;10183;47.808;9.476;2023-11-19T00:23:07;13.43;;;12.47;;
20044;SDS011;10183;47.808;9.476;2023-11-19T00:25:53;14.43;;;13.33;;
20044;SDS011;10183;47.808;9.476;2023-11-19T00:28:39;16.47;;;15.00;;
20044;SDS011;10183;47.808;9.476;2023-11-19T00:31:25;16.87;;;15.37;;
20044;SDS011;10183;47.808;9.476;2023-11-19T00:34:13;15.87;;;14.50;;
20044;SDS011;10183;47.808;9.476;2023-11-19T00:36:59;16.17;;;14.77;;
20044;SDS011;10183;47.808;9.476;2023-11-19T00:39:44;16.27;;;14.73;;
20044;SDS011;10183;47.808;9.476;2023-11-19T00:42:31;15.07;;;13.60;;
20044;SDS011;10183;47.808;9.476;2023-11-19T00:45:18;17.47;;;15.77;;
20044;SDS011;10183;47.808;9.476;2023-11-19T00:48:04;14.80;;;13.70;;
20044;SDS011;10183;47.808;9.476;2023-11-19T00:50:50;15.60;;;14.23;;
20044;SDS011;10183;47.808;9.476;2023-11-19T00:53:36;12.83;;;12.00;;
20044;SDS011;10183;47.808;9.476;2023-11-19T00:56:22;11.73;;;11.03;;
20044;SDS011;10183;47.808;9.476;2023-11-19T00:59:08;21.00;;;17.43;;
20044;SDS011;10183;47.808;9.476;2023-11-19T01:01:54;14.83;;;13.63;;
20044;SDS011;10183;47.808;9.476;2023-11-19T01:04:41;16.20;;;14.80;;
20044;SDS011;10183;47.808;9.476;2023-11-19T01:07:27;12.60;;;11.90;;
20044;SDS011;10183;47.808;9.476;2023-11-19T01:10:13;16.97;;;15.33;;
20044;SDS011;10183;47.808;9.476;2023-11-19T01:13:01;13.73;;;12.73;;
20044;SDS011;10183;47.808;9.476;2023-11-19T01:15:48;14.63;;;13.60;;
20044;SDS011;10183;47.808;9.476;2023-11-19T01:18:35;12.80;;;11.97;;
20044;SDS011;10183;47.808;9.476;2023-11-19T01:21:21;19.77;;;17.87;;
20044;SDS011;10183;47.808;9.476;2023-11-19T01:24:07;18.00;;;15.77;;
20044;SDS011;10183;47.808;9.476;2023-11-19T01:26:55;15.63;;;14.33;;
20044;SDS011;10183;47.808;9.476;2023-11-19T01:29:43;18.43;;;16.67;;
20044;SDS011;10183;47.808;9.476;2023-11-19T01:32:28;11.80;;;11.10;;
20044;SDS011;10183;47.808;9.476;2023-11-19T01:35:14;18.13;;;16.43;;
20044;SDS011;10183;47.808;9.476;2023-11-19T01:38:00;16.93;;;15.53;;
20044;SDS011;10183;47.808;9.476;2023-11-19T01:40:46;14.67;;;13.47;;
20044;SDS011;10183;47.808;9.476;2023-11-19T01:43:33;15.83;;;14.57;;
20044;SDS011;10183;47.808;9.476;2023-11-19T01:46:23;15.60;;;14.33;;
20044;SDS011;10183;47.808;9.476;2023-11-19T01:49:09;17.70;;;16.13;;
20044;SDS011;10183;47.808;9.476;2023-11-19T01:51:57;15.77;;;14.57;;
20044;SDS011;10183;47.808;9.476;2023-11-19T01:54:43;15.77;;;14.47;;
20044;SDS011;10183;47.808;9.476;2023-11-19T01:57:30;15.67;;;14.50;;
20044;SDS011;10183;47.808;9.476;2023-11-19T02:00:16;15.83;;;14.53;;
20044;SDS011;10183;47.808;9.476;2023-11-19T02:03:05;15.07;;;13.53;;
20044;SDS011;10183;47.808;9.476;2023-11-19T02:05:53;15.83;;;14.53;;
20044;SDS011;10183;47.808;9.476;2023-11-19T02:08:39;14.37;;;13.30;;
20044;SDS011;10183;47.808;9.476;2023-11-19T02:11:25;17.33;;;15.77;;
20044;SDS011;10183;47.808;9.476;2023-11-19T02:14:15;13.53;;;12.47;;
20044;SDS011;10183;47.808;9.476;2023-11-19T02:17:01;15.07;;;13.77;;
20044;SDS011;10183;47.808;9.476;2023-11-19T02:19:47;15.57;;;14.17;;
20044;SDS011;10183;47.808;9.476;2023-11-19T02:22:33;15.07;;;13.57;;
20044;SDS011;10183;47.808;9.476;2023-11-19T02:25:27;15.27;;;13.77;;
20044;SDS011;10183;47.808;9.476;2023-11-19T02:28:15;16.43;;;15.03;;
20044;SDS011;10183;47.808;9.476;2023-11-19T02:31:02;16.37;;;15.07;;
20044;SDS011;10183;47.808;9.476;2023-11-19T02:33:50;18.97;;;16.37;;
20044;SDS011;10183;47.808;9.476;2023-11-19T02:36:37;17.83;;;16.23;;
20044;SDS011;10183;47.808;9.476;2023-11-19T02:39:23;18.83;;;17.03;;
20044;SDS011;10183;47.808;9.476;2023-11-19T02:42:09;18.57;;;16.90;;
20044;SDS011;10183;47.808;9.476;2023-11-19T02:44:55;14.40;;;13.40;;
20044;SDS011;10183;47.808;9.476;2023-11-19T02:47:41;18.17;;;16.43;;
20044;SDS011;10183;47.808;9.476;2023-11-19T02:50:27;16.50;;;15.17;;
20044;SDS011;10183;47.808;9.476;2023-11-19T02:53:13;20.60;;;18.70;;
20044;SDS011;10183;47.808;9.476;2023-11-19T02:56:01;17.13;;;15.50;;
20044;SDS011;10183;47.808;9.476;2023-11-19T02:58:55;17.10;;;15.50;;
20044;SDS011;10183;47.808;9.476;2023-11-19T03:01:41;14.73;;;13.63;;
20044;SDS011;10183;47.808;9.476;2023-11-19T03:04:29;17.10;;;15.60;;
20044;SDS011;10183;47.808;9.476;2023-11-19T03:07:16;14.80;;;13.60;;
20044;SDS011;10183;47.808;9.476;2023-11-19T03:10:03;15.40;;;13.90;;
20044;SDS011;10183;47.808;9.476;2023-11-19T03:12:51;12.83;;;11.93;;
20044;SDS011;10183;47.808;9.476;2023-11-19T03:15:36;18.13;;;16.50;;
20044;SDS011;10183;47.808;9.476;2023-11-19T03:18:22;14.73;;;13.73;;
20044;SDS011;10183;47.808;9.476;2023-11-19T03:21:08;14.97;;;13.80;;
20044;SDS011;10183;47.808;9.476;2023-11-19T03:23:54;14.83;;;13.73;;
20044;SDS011;10183;47.808;9.476;2023-11-19T03:26:40;15.90;;;14.47;;
20044;SDS011;10183;47.808;9.476;2023-11-19T03:29:28;13.93;;;12.83;;
20044;SDS011;10183;47.808;9.476;2023-11-19T03:32:14;16.83;;;15.33;;
20044;SDS011;10183;47.808;9.476;2023-11-19T03:35:01;15.80;;;14.50;;
20044;SDS011;10183;47.808;9.476;2023-11-19T03:37:50;15.03;;;13.93;;
20044;SDS011;10183;47.808;9.476;2023-11-19T03:40:36;16.07;;;14.87;;
20044;SDS011;10183;47.808;9.476;2023-11-19T03:43:23;15.33;;;14.23;;
20044;SDS011;10183;47.808;9.476;2023-11-19T03:46:18;14.97;;;13.83;;
20044;SDS011;10183;47.808;9.476;2023-11-19T03:49:05;15.47;;;14.03;;
20044;SDS011;10183;47.808;9.476;2023-11-19T03:51:52;14.80;;;13.70;;
20044;SDS011;10183;47.808;9.476;2023-11-19T03:54:38;17.83;;;16.17;;
20044;SDS011;10183;47.808;9.476;2023-11-19T03:57:24;16.00;;;14.80;;
20044;SDS011;10183;47.808;9.476;2023-11-19T04:00:10;17.00;;;15.43;;
20044;SDS011;10183;47.808;9.476;2023-11-19T04:02:59;15.70;;;14.60;;
20044;SDS011;10183;47.808;9.476;2023-11-19T04:05:45;14.87;;;13.87;;
20044;SDS011;10183;47.808;9.476;2023-11-19T04:08:31;12.70;;;12.00;;
20044;SDS011;10183;47.808;9.476;2023-11-19T04:11:17;16.50;;;14.90;;
20044;SDS011;10183;47.808;9.476;2023-11-19T04:14:03;15.20;;;14.10;;
20044;SDS011;10183;47.808;9.476;2023-11-19T04:16:49;15.40;;;14.30;;
20044;SDS011;10183;47.808;9.476;2023-11-19T04:19:36;14.80;;;13.70;;
20044;SDS011;10183;47.808;9.476;2023-11-19T04:22:23;14.30;;;13.30;;
20044;SDS011;10183;47.808;9.476;2023-11-19T04:25:09;15.40;;;14.17;;
20044;SDS011;10183;47.808;9.476;2023-11-19T04:27:55;16.47;;;15.17;;
20044;SDS011;10183;47.808;9.476;2023-11-19T04:30:40;14.70;;;13.60;;
20044;SDS011;10183;47.808;9.476;2023-11-19T04:33:27;12.40;;;11.70;;
20044;SDS011;10183;47.808;9.476;2023-11-19T04:36:12;13.87;;;12.43;;
20044;SDS011;10183;47.808;9.476;2023-11-19T04:39:00;14.07;;;12.90;;
20044;SDS011;10183;47.808;9.476;2023-11-19T04:41:46;16.23;;;14.70;;
20044;SDS011;10183;47.808;9.476;2023-11-19T04:44:37;15.77;;;14.47;;
20044;SDS011;10183;47.808;9.476;2023-11-19T04:47:23;15.70;;;14.50;;
20044;SDS011;10183;47.808;9.476;2023-11-19T04:50:09;13.93;;;12.93;;
20044;SDS011;10183;47.808;9.476;2023-11-19T04:52:56;13.30;;;12.30;;
20044;SDS011;10183;47.808;9.476;2023-11-19T04:55:42;14.23;;;12.97;;
20044;SDS011;10183;47.808;9.476;2023-11-19T04:58:28;13.27;;;12.17;;
20044;SDS011;10183;47.808;9.476;2023-11-19T05:01:14;14.53;;;13.33;;
20044;SDS011;10183;47.808;9.476;2023-11-19T05:04:02;15.73;;;14.23;;
20044;SDS011;10183;47.808;9.476;2023-11-19T05:06:48;19.10;;;16.20;;
20044;SDS011;10183;47.808;9.476;2023-11-19T05:09:34;21.57;;;18.67;;
20044;SDS011;10183;47.808;9.476;2023-11-19T05:12:20;13.90;;;12.80;;
20044;SDS011;10183;47.808;9.476;2023-11-19T05:15:06;14.17;;;13.00;;
20044;SDS011;10183;47.808;9.476;2023-11-19T05:17:52;14.07;;;12.87;;
20044;SDS011;10183;47.808;9.476;2023-11-19T05:20:38;14.63;;;13.17;;
20044;SDS011;10183;47.808;9.476;2023-11-19T05:23:24;13.97;;;12.83;;
20044;SDS011;10183;47.808;9.476;2023-11-19T05:26:16;14.23;;;13.03;;
20044;SDS011;10183;47.808;9.476;2023-11-19T05:29:03;15.00;;;13.57;;
20044;SDS011;10183;47.808;9.476;2023-11-19T05:31:50;13.23;;;12.13;;
20044;SDS011;10183;47.808;9.476;2023-11-19T05:34:36;14.37;;;11.90;;
20044;SDS011;10183;47.808;9.476;2023-11-19T05:37:22;13.60;;;12.53;;
20044;SDS011;10183;47.808;9.476;2023-11-19T05:40:08;10.33;;;9.63;;
20044;SDS011;10183;47.808;9.476;2023-11-19T05:42:59;12.17;;;11.23;;
20044;SDS011;10183;47.808;9.476;2023-11-19T05:45:45;13.40;;;12.30;;
20044;SDS011;10183;47.808;9.476;2023-11-19T05:48:31;12.93;;;11.90;;
20044;SDS011;10183;47.808;9.476;2023-11-19T05:51:18;12.73;;;11.67;;
20044;SDS011;10183;47.808;9.476;2023-11-19T05:54:06;12.40;;;11.53;;
20044;SDS011;10183;47.808;9.476;2023-11-19T05:56:52;11.27;;;10.37;;
20044;SDS011;10183;47.808;9.476;2023-11-19T05:59:39;17.83;;;14.00;;
20044;SDS011;10183;47.808;9.476;2023-11-19T06:02:25;12.47;;;11.40;;
20044;SDS011;10183;47.808;9.476;2023-11-19T06:05:12;11.97;;;11.10;;
20044;SDS011;10183;47.808;9.476;2023-11-19T06:07:58;16.23;;;14.53;;
20044;SDS011;10183;47.808;9.476;2023-11-19T06:10:44;16.83;;;11.63;;
20044;SDS011;10183;47.808;9.476;2023-11-19T06:13:31;11.90;;;10.90;;
20044;SDS011;10183;47.808;9.476;2023-11-19T06:16:17;11.87;;;10.97;;
20044;SDS011;10183;47.808;9.476;2023-11-19T06:19:03;12.50;;;11.50;;
20044;SDS011;10183;47.808;9.476;2023-11-19T06:21:49;14.87;;;13.40;;
20044;SDS011;10183;47.808;9.476;2023-11-19T06:24:36;14.23;;;12.40;;
20044;SDS011;10183;47.808;9.476;2023-11-19T06:27:22;13.30;;;12.10;;
20044;SDS011;10183;47.808;9.476;2023-11-19T06:30:08;13.63;;;12.30;;
20044;SDS011;10183;47.808;9.476;2023-11-19T06:32:55;12.83;;;10.37;;
20044;SDS011;10183;47.808;9.476;2023-11-19T06:35:41;12.27;;;11.17;;
20044;SDS011;10183;47.808;9.476;2023-11-19T06:38:27;11.90;;;10.67;;
20044;SDS011;10183;47.808;9.476;2023-11-19T06:41:12;20.37;;;11.93;;
20044;SDS011;10183;47.808;9.476;2023-11-19T06:43:58;15.33;;;12.53;;
20044;SDS011;10183;47.808;9.476;2023-11-19T06:46:45;12.57;;;10.43;;
20044;SDS011;10183;47.808;9.476;2023-11-19T06:49:31;15.40;;;11.93;;
20044;SDS011;10183;47.808;9.476;2023-11-19T06:52:17;12.87;;;11.33;;
20044;SDS011;10183;47.808;9.476;2023-11-19T06:55:03;9.17;;;8.57;;
20044;SDS011;10183;47.808;9.476;2023-11-19T06:57:49;19.10;;;17.13;;
20044;SDS011;10183;47.808;9.476;2023-11-19T07:00:35;16.80;;;15.10;;
20044;SDS011;10183;47.808;9.476;2023-11-19T07:03:21;25.60;;;12.93;;
20044;SDS011;10183;47.808;9.476;2023-11-19T07:06:07;13.03;;;11.87;;
20044;SDS011;10183;47.808;9.476;2023-11-19T07:08:53;14.50;;;13.17;;
20044;SDS011;10183;47.808;9.476;2023-11-19T07:11:39;11.33;;;10.63;;
20044;SDS011;10183;47.808;9.476;2023-11-19T07:14:26;14.83;;;13.47;;
20044;SDS011;10183;47.808;9.476;2023-11-19T07:17:12;16.53;;;14.63;;
20044;SDS011;10183;47.808;9.476;2023-11-19T07:19:58;22.47;;;17.70;;
20044;SDS011;10183;47.808;9.476;2023-11-19T07:22:45;27.63;;;18.03;;
20044;SDS011;10183;47.808;9.476;2023-11-19T07:25:31;14.90;;;13.60;;
20044;SDS011;10183;47.808;9.476;2023-11-19T07:28:17;12.73;;;11.73;;
20044;SDS011;10183;47.808;9.476;2023-11-19T07:31:03;10.07;;;9.33;;
20044;SDS011;10183;47.808;9.476;2023-11-19T07:33:49;11.47;;;10.37;;
20044;SDS011;10183;47.808;9.476;2023-11-19T07:36:35;7.23;;;6.90;;
20044;SDS011;10183;47.808;9.476;2023-11-19T07:39:21;7.67;;;7.27;;
20044;SDS011;10183;47.808;9.476;2023-11-19T07:42:07;26.80;;;16.63;;
20044;SDS011;10183;47.808;9.476;2023-11-19T07:44:54;10.40;;;9.47;;
20044;SDS011;10183;47.808;9.476;2023-11-19T07:47:42;11.43;;;9.67;;
20044;SDS011;10183;47.808;9.476;2023-11-19T07:50:30;9.83;;;9.03;;
20044;SDS011;10183;47.808;9.476;2023-11-19T07:53:17;7.83;;;7.30;;
20044;SDS011;10183;47.808;9.476;2023-11-19T07:56:03;11.67;;;10.63;;
20044;SDS011;10183;47.808;9.476;2023-11-19T07:58:49;8.40;;;7.90;;
20044;SDS011;10183;47.808;9.476;2023-11-19T08:01:35;11.13;;;10.33;;
20044;SDS011;10183;47.808;9.476;2023-11-19T08:04:21;9.80;;;8.90;;
20044;SDS011;10183;47.808;9.476;2023-11-19T08:07:07;9.77;;;9.00;;
20044;SDS011;10183;47.808;9.476;2023-11-19T08:09:53;6.70;;;6.37;;
20044;SDS011;10183;47.808;9.476;2023-11-19T08:12:40;10.47;;;8.43;;
20044;SDS011;10183;47.808;9.476;2023-11-19T08:15:27;8.47;;;7.97;;
20044;SDS011;10183;47.808;9.476;2023-11-19T08:18:12;11.50;;;10.70;;
20044;SDS011;10183;47.808;9.476;2023-11-19T08:20:58;10.77;;;9.77;;
20044;SDS011;10183;47.808;9.476;2023-11-19T08:23:46;6.53;;;6.23;;
20044;SDS011;10183;47.808;9.476;2023-11-19T08:26:32;6.70;;;6.40;;
20044;SDS011;10183;47.808;9.476;2023-11-19T08:29:17;9.43;;;8.63;;
20044;SDS011;10183;47.808;9.476;2023-11-19T08:32:03;8.07;;;7.67;;
20044;SDS011;10183;47.808;9.476;2023-11-19T08:34:50;7.20;;;6.80;;
20044;SDS011;10183;47.808;9.476;2023-11-19T08:37:36;8.57;;;8.07;;
20044;SDS011;10183;47.808;9.476;2023-11-19T08:40:23;6.70;;;6.40;;
20044;SDS011;10183;47.808;9.476;2023-11-19T08:43:09;10.10;;;9.10;;
20044;SDS011;10183;47.808;9.476;2023-11-19T08:45:54;9.80;;;8.90;;
20044;SDS011;10183;47.808;9.476;2023-11-19T08:48:40;10.27;;;9.37;;
20044;SDS011;10183;47.808;9.476;2023-11-19T08:51:26;8.00;;;7.60;;
20044;SDS011;10183;47.808;9.476;2023-11-19T08:54:13;9.73;;;9.13;;
20044;SDS011;10183;47.808;9.476;2023-11-19T08:56:59;9.63;;;9.00;;
20044;SDS011;10183;47.808;9.476;2023-11-19T08:59:45;8.40;;;8.00;;
20044;SDS011;10183;47.808;9.476;2023-11-19T09:02:31;10.60;;;9.70;;
20044;SDS011;10183;47.808;9.476;2023-11-19T09:05:17;9.27;;;8.67;;
20044;SDS011;10183;47.808;9.476;2023-11-19T09:08:04;10.53;;;9.77;;
20044;SDS011;10183;47.808;9.476;2023-11-19T09:10:50;9.13;;;8.63;;
20044;SDS011;10183;47.808;9.476;2023-11-19T09:13:36;9.00;;;8.17;;
20044;SDS011;10183;47.808;9.476;2023-11-19T09:16:22;9.30;;;8.70;;
20044;SDS011;10183;47.808;9.476;2023-11-19T09:19:08;10.30;;;9.50;;
20044;SDS011;10183;47.808;9.476;2023-11-19T09:21:54;8.30;;;7.90;;
20044;SDS011;10183;47.808;9.476;2023-11-19T09:24:40;8.60;;;8.10;;
20044;SDS011;10183;47.808;9.476;2023-11-19T09:27:26;7.80;;;7.40;;
20044;SDS011;10183;47.808;9.476;2023-11-19T09:30:12;8.57;;;8.03;;
20044;SDS011;10183;47.808;9.476;2023-11-19T09:32:58;7.60;;;7.20;;
20044;SDS011;10183;47.808;9.476;2023-11-19T09:35:45;13.17;;;12.03;;
20044;SDS011;10183;47.808;9.476;2023-11-19T09:38:31;8.00;;;7.60;;
20044;SDS011;10183;47.808;9.476;2023-11-19T09:41:17;8.23;;;7.83;;
20044;SDS011;10183;47.808;9.476;2023-11-19T09:44:04;9.70;;;9.00;;
20044;SDS011;10183;47.808;9.476;2023-11-19T09:46:50;10.57;;;9.77;;
20044;SDS011;10183;47.808;9.476;2023-11-19T09:49:38;9.47;;;8.87;;
20044;SDS011;10183;47.808;9.476;2023-11-19T09:52:24;10.00;;;9.27;;
20044;SDS011;10183;47.808;9.476;2023-11-19T09:55:10;9.27;;;8.67;;
20044;SDS011;10183;47.808;9.476;2023-11-19T09:57:57;9.80;;;8.97;;
20044;SDS011;10183;47.808;9.476;2023-11-19T10:00:47;12.87;;;9.40;;
20044;SDS011;10183;47.808;9.476;2023-11-19T10:03:34;12.20;;;10.60;;
20044;SDS011;10183;47.808;9.476;2023-11-19T10:06:23;12.30;;;11.27;;
20044;SDS011;10183;47.808;9.476;2023-11-19T10:09:12;10.37;;;9.53;;
20044;SDS011;10183;47.808;9.476;2023-11-19T10:12:00;11.93;;;10.43;;
20044;SDS011;10183;47.808;9.476;2023-11-19T10:14:47;10.80;;;10.00;;
20044;SDS011;10183;47.808;9.476;2023-11-19T10:17:34;11.37;;;10.50;;
20044;SDS011;10183;47.808;9.476;2023-11-19T10:20:20;11.60;;;10.70;;
20044;SDS011;10183;47.808;9.476;2023-11-19T10:23:06;10.67;;;9.97;;
20044;SDS011;10183;47.808;9.476;2023-11-19T10:25:52;11.97;;;11.07;;
20044;SDS011;10183;47.808;9.476;2023-11-19T10:28:39;10.80;;;10.10;;
20044;SDS011;10183;47.808;9.476;2023-11-19T10:31:31;11.10;;;10.40;;
20044;SDS011;10183;47.808;9.476;2023-11-19T10:34:26;12.17;;;11.27;;
20044;SDS011;10183;47.808;9.476;2023-11-19T10:37:27;12.30;;;11.30;;
20044;SDS011;10183;47.808;9.476;2023-11-19T10:40:15;14.30;;;13.10;;
20044;SDS011;10183;47.808;9.476;2023-11-19T10:43:04;13.47;;;12.47;;
20044;SDS011;10183;47.808;9.476;2023-11-19T10:45:50;12.83;;;11.73;;
20044;SDS011;10183;47.808;9.476;2023-11-19T10:48:36;11.97;;;11.10;;
20044;SDS011;10183;47.808;9.476;2023-11-19T10:51:23;10.97;;;10.27;;
20044;SDS011;10183;47.808;9.476;2023-11-19T10:54:09;11.33;;;10.50;;
20044;SDS011;10183;47.808;9.476;2023-11-19T10:56:59;12.00;;;11.20;;
20044;SDS011;10183;47.808;9.476;2023-11-19T10:59:46;12.47;;;11.57;;
20044;SDS011;10183;47.808;9.476;2023-11-19T11:02:35;11.10;;;10.40;;
20044;SDS011;10183;47.808;9.476;2023-11-19T11:05:26;11.60;;;10.80;;
20044;SDS011;10183;47.808;9.476;2023-11-19T11:08:12;13.53;;;12.53;;
20044;SDS011;10183;47.808;9.476;2023-11-19T11:10:59;12.33;;;11.40;;
20044;SDS011;10183;47.808;9.476;2023-11-19T11:13:46;12.60;;;11.70;;
20044;SDS011;10183;47.808;9.476;2023-11-19T11:16:34;11.63;;;10.80;;
20044;SDS011;10183;47.808;9.476;2023-11-19T11:19:23;12.10;;;11.20;;
20044;SDS011;10183;47.808;9.476;2023-11-19T11:22:09;12.63;;;11.73;;
20044;SDS011;10183;47.808;9.476;2023-11-19T11:28:08;11.77;;;10.97;;
20044;SDS011;10183;47.808;9.476;2023-11-19T11:31:04;11.30;;;10.50;;
20044;SDS011;10183;47.808;9.476;2023-11-19T11:40:14;12.03;;;11.23;;
20044;SDS011;10183;47.808;9.476;2023-11-19T11:43:01;11.10;;;10.40;;
20044;SDS011;10183;47.808;9.476;2023-11-19T11:45:48;9.83;;;9.23;;
20044;SDS011;10183;47.808;9.476;2023-11-19T11:48:33;11.50;;;10.80;;
20044;SDS011;10183;47.808;9.476;2023-11-19T11:51:21;11.00;;;10.30;;
20044;SDS011;10183;47.808;9.476;2023-11-19T11:54:28;10.90;;;10.20;;
20044;SDS011;10183;47.808;9.476;2023-11-19T11:57:15;10.73;;;10.03;;
20044;SDS011;10183;47.808;9.476;2023-11-19T12:00:03;12.00;;;11.20;;
20044;SDS011;10183;47.808;9.476;2023-11-19T12:03:00;11.30;;;10.60;;
20044;SDS011;10183;47.808;9.476;2023-11-19T12:05:47;11.13;;;10.10;;
20044;SDS011;10183;47.808;9.476;2023-11-19T12:08:34;10.10;;;9.50;;
20044;SDS011;10183;47.808;9.476;2023-11-19T12:11:20;12.10;;;11.20;;
20044;SDS011;10183;47.808;9.476;2023-11-19T12:14:09;13.20;;;12.20;;
20044;SDS011;10183;47.808;9.476;2023-11-19T12:17:00;12.37;;;11.53;;
20044;SDS011;10183;47.808;9.476;2023-11-19T12:19:49;12.00;;;11.20;;
20044;SDS011;10183;47.808;9.476;2023-11-19T12:22:38;12.77;;;11.87;;
20044;SDS011;10183;47.808;9.476;2023-11-19T12:25:26;13.90;;;12.90;;
20044;SDS011;10183;47.808;9.476;2023-11-19T12:28:12;13.27;;;12.37;;
20044;SDS011;10183;47.808;9.476;2023-11-19T12:31:08;13.73;;;12.73;;
20044;SDS011;10183;47.808;9.476;2023-11-19T12:33:54;13.30;;;12.30;;
20044;SDS011;10183;47.808;9.476;2023-11-19T12:36:40;14.33;;;13.13;;
20044;SDS011;10183;47.808;9.476;2023-11-19T12:39:29;12.60;;;11.70;;
20044;SDS011;10183;47.808;9.476;2023-11-19T12:42:15;15.70;;;14.40;;
20044;SDS011;10183;47.808;9.476;2023-11-19T12:45:01;12.83;;;11.83;;
20044;SDS011;10183;47.808;9.476;2023-11-19T12:47:47;12.70;;;11.80;;
20044;SDS011;10183;47.808;9.476;2023-11-19T12:50:50;16.80;;;15.53;;
20044;SDS011;10183;47.808;9.476;2023-11-19T12:53:50;18.70;;;17.30;;
20044;SDS011;10183;47.808;9.476;2023-11-19T12:56:40;18.57;;;17.07;;
20044;SDS011;10183;47.808;9.476;2023-11-19T12:59:37;14.97;;;13.87;;
20044;SDS011;10183;47.808;9.476;2023-11-19T13:02:23;15.90;;;14.70;;
20044;SDS011;10183;47.808;9.476;2023-11-19T13:05:31;15.47;;;14.27;;
20044;SDS011;10183;47.808;9.476;2023-11-19T13:08:18;17.37;;;15.97;;
20044;SDS011;10183;47.808;9.476;2023-11-19T13:11:04;15.40;;;14.30;;
20044;SDS011;10183;47.808;9.476;2023-11-19T13:13:57;14.00;;;13.00;;
20044;SDS011;10183;47.808;9.476;2023-11-19T13:16:51;16.27;;;14.90;;
20044;SDS011;10183;47.808;9.476;2023-11-19T13:19:39;18.27;;;16.77;;
20044;SDS011;10183;47.808;9.476;2023-11-19T13:22:25;17.37;;;15.97;;
20044;SDS011;10183;47.808;9.476;2023-11-19T13:25:11;17.13;;;15.77;;
20044;SDS011;10183;47.808;9.476;2023-11-19T13:27:57;15.20;;;14.00;;
20044;SDS011;10183;47.808;9.476;2023-11-19T13:30:44;17.37;;;15.97;;
20044;SDS011;10183;47.808;9.476;2023-11-19T13:33:30;16.90;;;15.60;;
20044;SDS011;10183;47.808;9.476;2023-11-19T13:36:16;15.20;;;13.97;;
20044;SDS011;10183;47.808;9.476;2023-11-19T13:39:02;17.60;;;16.10;;
20044;SDS011;10183;47.808;9.476;2023-11-19T13:41:48;15.53;;;14.13;;
20044;SDS011;10183;47.808;9.476;2023-11-19T13:44:35;14.43;;;13.23;;
20044;SDS011;10183;47.808;9.476;2023-11-19T13:47:21;12.60;;;11.80;;
20044;SDS011;10183;47.808;9.476;2023-11-19T13:50:11;12.57;;;11.77;;
20044;SDS011;10183;47.808;9.476;2023-11-19T13:53:02;12.33;;;11.50;;
20044;SDS011;10183;47.808;9.476;2023-11-19T13:55:50;11.70;;;11.00;;
20044;SDS011;10183;47.808;9.476;2023-11-19T13:58:36;13.10;;;12.30;;
20044;SDS011;10183;47.808;9.476;2023-11-19T14:01:22;13.30;;;12.50;;
20044;SDS011;10183;47.808;9.476;2023-11-19T14:04:11;13.20;;;12.40;;
20044;SDS011;10183;47.808;9.476;2023-11-19T14:06:58;14.20;;;13.20;;
20044;SDS011;10183;47.808;9.476;2023-11-19T14:09:45;11.27;;;10.40;;
20044;SDS011;10183;47.808;9.476;2023-11-19T14:12:31;12.67;;;11.77;;
20044;SDS011;10183;47.808;9.476;2023-11-19T14:15:18;12.50;;;11.70;;
20044;SDS011;10183;47.808;9.476;2023-11-19T14:18:04;12.00;;;11.20;;
20044;SDS011;10183;47.808;9.476;2023-11-19T14:20:50;12.87;;;11.97;;
20044;SDS011;10183;47.808;9.476;2023-11-19T14:23:36;14.73;;;13.60;;
20044;SDS011;10183;47.808;9.476;2023-11-19T14:26:22;14.50;;;13.40;;
20044;SDS011;10183;47.808;9.476;2023-11-19T14:29:08;14.87;;;13.80;;
20044;SDS011;10183;47.808;9.476;2023-11-19T14:31:54;13.87;;;12.87;;
20044;SDS011;10183;47.808;9.476;2023-11-19T14:34:40;14.60;;;13.60;;
20044;SDS011;10183;47.808;9.476;2023-11-19T14:37:26;14.20;;;13.10;;
20044;SDS011;10183;47.808;9.476;2023-11-19T14:40:12;13.40;;;12.40;;
20044;SDS011;10183;47.808;9.476;2023-11-19T14:42:58;15.40;;;14.27;;
20044;SDS011;10183;47.808;9.476;2023-11-19T14:45:45;14.87;;;13.90;;
20044;SDS011;10183;47.808;9.476;2023-11-19T14:48:31;15.80;;;14.70;;
20044;SDS011;10183;47.808;9.476;2023-11-19T14:51:17;16.27;;;14.63;;
20044;SDS011;10183;47.808;9.476;2023-11-19T14:54:04;14.97;;;13.87;;
20044;SDS011;10183;47.808;9.476;2023-11-19T14:56:50;15.10;;;14.10;;
20044;SDS011;10183;47.808;9.476;2023-11-19T14:59:37;15.80;;;14.50;;
20044;SDS011;10183;47.808;9.476;2023-11-19T15:02:23;13.77;;;12.77;;
20044;SDS011;10183;47.808;9.476;2023-11-19T15:05:09;13.10;;;12.20;;
20044;SDS011;10183;47.808;9.476;2023-11-19T15:07:55;12.30;;;11.50;;
20044;SDS011;10183;47.808;9.476;2023-11-19T15:10:41;13.00;;;12.10;;
20044;SDS011;10183;47.808;9.476;2023-11-19T15:13:28;13.50;;;12.40;;
20044;SDS011;10183;47.808;9.476;2023-11-19T15:16:14;12.60;;;11.70;;
20044;SDS011;10183;47.808;9.476;2023-11-19T15:19:00;14.67;;;13.37;;
20044;SDS011;10183;47.808;9.476;2023-11-19T15:21:48;16.63;;;15.03;;
20044;SDS011;10183;47.808;9.476;2023-11-19T15:24:34;16.53;;;15.10;;
20044;SDS011;10183;47.808;9.476;2023-11-19T15:27:22;16.90;;;15.70;;
20044;SDS011;10183;47.808;9.476;2023-11-19T15:30:08;14.83;;;13.63;;
20044;SDS011;10183;47.808;9.476;2023-11-19T15:32:55;17.10;;;15.60;;
20044;SDS011;10183;47.808;9.476;2023-11-19T15:35:41;17.50;;;16.10;;
20044;SDS011;10183;47.808;9.476;2023-11-19T15:38:27;20.07;;;18.57;;
20044;SDS011;10183;47.808;9.476;2023-11-19T15:41:12;24.77;;;22.97;;
20044;SDS011;10183;47.808;9.476;2023-11-19T15:43:58;19.80;;;18.33;;
20044;SDS011;10183;47.808;9.476;2023-11-19T15:46:44;15.10;;;14.10;;
20044;SDS011;10183;47.808;9.476;2023-11-19T15:49:30;15.33;;;14.43;;
20044;SDS011;10183;47.808;9.476;2023-11-19T15:52:16;14.47;;;13.67;;
20044;SDS011;10183;47.808;9.476;2023-11-19T15:55:02;14.40;;;13.50;;
20044;SDS011;10183;47.808;9.476;2023-11-19T15:57:48;14.40;;;13.50;;
20044;SDS011;10183;47.808;9.476;2023-11-19T16:00:34;15.13;;;14.13;;
20044;SDS011;10183;47.808;9.476;2023-11-19T16:03:20;15.90;;;14.83;;
20044;SDS011;10183;47.808;9.476;2023-11-19T16:06:06;15.53;;;14.53;;
20044;SDS011;10183;47.808;9.476;2023-11-19T16:08:54;14.13;;;13.23;;
20044;SDS011;10183;47.808;9.476;2023-11-19T16:11:41;14.07;;;13.17;;
20044;SDS011;10183;47.808;9.476;2023-11-19T16:14:29;13.60;;;12.80;;
20044;SDS011;10183;47.808;9.476;2023-11-19T16:17:15;14.07;;;13.17;;
20044;SDS011;10183;47.808;9.476;2023-11-19T16:20:02;14.97;;;14.07;;
20044;SDS011;10183;47.808;9.476;2023-11-19T16:22:52;14.60;;;13.50;;
20044;SDS011;10183;47.808;9.476;2023-11-19T16:25:38;13.67;;;12.87;;
20044;SDS011;10183;47.808;9.476;2023-11-19T16:28:24;14.37;;;13.47;;
20044;SDS011;10183;47.808;9.476;2023-11-19T16:31:10;14.37;;;13.43;;